CHX8 EDLH-EDLH
Flight info
| Callsign | CHX8 |
|---|---|
| Flight time | N/A |
| Altitude | 1500 |
| Route | DCT SOEST MARIEN KKH DCT |
| Aircraft | EC45/L-SDGY/S |
Departure
| Time | 2026-04-20 17:52 |
|---|---|
| Airport | Hamm-Lippewiesen Airfield (EDLH) |
Arrival
| Time | N/A |
|---|---|
| Airport | Hamm-Lippewiesen Airfield (EDLH) |
| Time | Latitude | Longitude | Altitude | Speed | Heading |
|---|---|---|---|---|---|
| 2026-04-20 17:45 | 51.69026 | 7.81526 | 189 ft | 0 kts | 63° |
| 2026-04-20 17:50 | 51.69025 | 7.81527 | 189 ft | 3 kts | 32° |
| 2026-04-20 17:50 | 51.69027 | 7.81541 | 222 ft | 5 kts | 66° |
| 2026-04-20 17:50 | 51.69000 | 7.81631 | 233 ft | 12 kts | 63° |
| 2026-04-20 17:50 | 51.68972 | 7.81789 | 298 ft | 14 kts | 62° |
| 2026-04-20 17:51 | 51.68975 | 7.81838 | 312 ft | 16 kts | 60° |
| 2026-04-20 17:51 | 51.68982 | 7.81955 | 334 ft | 26 kts | 62° |
| 2026-04-20 17:51 | 51.69074 | 7.82400 | 545 ft | 56 kts | 60° |
| 2026-04-20 17:51 | 51.69250 | 7.83099 | 725 ft | 79 kts | 64° |
| 2026-04-20 17:52 | 51.69427 | 7.83932 | 1055 ft | 83 kts | 66° |
| 2026-04-20 17:52 | 51.69634 | 7.84923 | 1438 ft | 97 kts | 65° |
| 2026-04-20 17:52 | 51.69805 | 7.85941 | 1586 ft | 96 kts | 77° |
| 2026-04-20 17:52 | 51.69857 | 7.87033 | 1654 ft | 98 kts | 81° |
| 2026-04-20 17:53 | 51.69865 | 7.88125 | 1671 ft | 100 kts | 93° |
| 2026-04-20 17:53 | 51.69488 | 7.89102 | 1686 ft | 106 kts | 128° |
| 2026-04-20 17:53 | 51.68950 | 7.89922 | 1691 ft | 107 kts | 131° |
| 2026-04-20 17:53 | 51.68404 | 7.90730 | 1693 ft | 106 kts | 132° |
| 2026-04-20 17:54 | 51.67860 | 7.91539 | 1691 ft | 106 kts | 132° |
| 2026-04-20 17:54 | 51.67316 | 7.92345 | 1697 ft | 106 kts | 132° |
| 2026-04-20 17:54 | 51.66774 | 7.93151 | 1694 ft | 107 kts | 132° |
| 2026-04-20 17:54 | 51.66228 | 7.93962 | 1700 ft | 106 kts | 132° |
| 2026-04-20 17:55 | 51.65687 | 7.94769 | 1698 ft | 106 kts | 132° |
| 2026-04-20 17:55 | 51.65152 | 7.95566 | 1694 ft | 106 kts | 132° |
| 2026-04-20 17:55 | 51.64603 | 7.96383 | 1696 ft | 106 kts | 132° |
| 2026-04-20 17:55 | 51.64068 | 7.97182 | 1698 ft | 106 kts | 131° |
| 2026-04-20 17:56 | 51.63523 | 7.97990 | 1695 ft | 106 kts | 132° |
| 2026-04-20 17:56 | 51.62978 | 7.98796 | 1697 ft | 107 kts | 132° |
| 2026-04-20 17:56 | 51.62423 | 7.99592 | 1697 ft | 107 kts | 135° |
| 2026-04-20 17:56 | 51.61841 | 8.00333 | 1699 ft | 107 kts | 137° |
| 2026-04-20 17:57 | 51.61257 | 8.01068 | 1703 ft | 106 kts | 137° |
| 2026-04-20 17:57 | 51.60677 | 8.01800 | 1696 ft | 106 kts | 137° |
| 2026-04-20 17:57 | 51.60095 | 8.02538 | 1695 ft | 107 kts | 137° |
| 2026-04-20 17:57 | 51.59514 | 8.03278 | 1693 ft | 107 kts | 137° |
| 2026-04-20 17:58 | 51.58985 | 8.03954 | 1711 ft | 83 kts | 137° |
| 2026-04-20 17:58 | 51.58559 | 8.04504 | 1577 ft | 79 kts | 136° |
| 2026-04-20 17:58 | 51.58161 | 8.05011 | 1350 ft | 65 kts | 136° |
| 2026-04-20 17:58 | 51.57806 | 8.05450 | 1244 ft | 65 kts | 139° |
| 2026-04-20 17:59 | 51.57433 | 8.05865 | 1070 ft | 65 kts | 139° |
| 2026-04-20 17:59 | 51.57109 | 8.06226 | 954 ft | 48 kts | 139° |
| 2026-04-20 17:59 | 51.56858 | 8.06504 | 790 ft | 40 kts | 139° |
| 2026-04-20 17:59 | 51.56648 | 8.06764 | 679 ft | 37 kts | 115° |
| 2026-04-20 18:00 | 51.56512 | 8.07095 | 636 ft | 33 kts | 106° |
| 2026-04-20 18:00 | 51.56405 | 8.07373 | 647 ft | 24 kts | 107° |
| 2026-04-20 18:00 | 51.56340 | 8.07611 | 668 ft | 26 kts | 81° |
| 2026-04-20 18:00 | 51.56326 | 8.07933 | 706 ft | 35 kts | 0° |
| 2026-04-20 18:01 | 51.56493 | 8.08110 | 766 ft | 33 kts | 316° |
| 2026-04-20 18:01 | 51.56676 | 8.07937 | 771 ft | 38 kts | 262° |
| 2026-04-20 18:01 | 51.56742 | 8.07459 | 636 ft | 43 kts | 258° |
| 2026-04-20 18:01 | 51.56752 | 8.07138 | 612 ft | 22 kts | 54° |
| 2026-04-20 18:02 | 51.56795 | 8.07003 | 473 ft | 3 kts | 101° |
| 2026-04-20 18:02 | 51.56746 | 8.07075 | 454 ft | 22 kts | 101° |
| 2026-04-20 18:02 | 51.56670 | 8.07375 | 446 ft | 32 kts | 97° |
| 2026-04-20 18:02 | 51.56638 | 8.07695 | 317 ft | 17 kts | 112° |
| 2026-04-20 18:03 | 51.56635 | 8.07709 | 314 ft | 0 kts | 114° |